Time;durP1;ratioP1;P1;durP2;ratioP2;P2;SDS_P1;SDS_P2;PMS_P1;PMS_P2;Temp;Humidity;BMP_temperature;BMP_pressure;BME280_temperature;BME280_humidity;BME280_pressure;Samples;Min_cycle;Max_cycle;Signal;HPM_P1;HPM_P2
2022/12/19 00:02:06;;;;;;;20.08;9.95;;;;;;;1.35;41.69;102224.81;7397972;19;19998;-57
2022/12/19 00:04:33;;;;;;;19.02;9.02;;;;;;;1.48;41.59;102225.31;7396576;19;20062;-57
2022/12/19 00:06:59;;;;;;;21.52;10.35;;;;;;;1.46;41.55;102222.03;7397932;19;20013;-57
2022/12/19 00:09:25;;;;;;;21.48;10.05;;;;;;;1.57;41.33;102217.66;7396615;19;20102;-57
2022/12/19 00:11:52;;;;;;;20.70;10.32;;;;;;;1.62;41.29;102209.66;7398380;19;20070;-57
2022/12/19 00:14:18;;;;;;;22.58;10.00;;;;;;;1.60;41.62;102209.09;7396508;19;20019;-56
2022/12/19 00:16:44;;;;;;;21.20;9.55;;;;;;;1.64;41.48;102209.41;7395980;19;20002;-57
2022/12/19 00:19:11;;;;;;;21.05;9.63;;;;;;;1.57;41.81;102212.25;7396288;19;20002;-57
2022/12/19 00:21:37;;;;;;;21.40;10.30;;;;;;;1.46;41.85;102200.50;7398092;19;20470;-56
2022/12/19 00:24:04;;;;;;;21.90;10.05;;;;;;;1.55;41.69;102200.09;7396686;19;20023;-57
2022/12/19 00:26:32;;;;;;;25.02;10.73;;;;;;;1.55;41.77;102208.16;7395166;19;19998;-57
2022/12/19 00:29:04;;;;;;;20.95;10.13;;;;;;;1.48;41.82;102202.94;7397610;19;20022;-57
2022/12/19 00:31:32;;;;;;;23.40;10.88;;;;;;;1.61;41.63;102196.44;7397200;19;19999;-57
2022/12/19 00:34:05;;;;;;;22.83;11.60;;;;;;;1.67;41.73;102200.84;7393867;19;20356;-56
2022/12/19 00:36:33;;;;;;;24.48;11.40;;;;;;;1.74;41.73;102200.66;7395927;19;20042;-57
2022/12/19 00:39:00;;;;;;;23.73;11.07;;;;;;;1.76;41.61;102191.25;7397917;19;20019;-57
2022/12/19 00:41:29;;;;;;;25.95;11.68;;;;;;;1.77;41.98;102190.22;7397386;19;20058;-57
2022/12/19 00:43:56;;;;;;;25.10;11.88;;;;;;;1.91;41.50;102189.88;7395468;19;20111;-57
2022/12/19 00:46:23;;;;;;;22.95;11.70;;;;;;;1.72;41.84;102186.66;7394138;19;19998;-57
2022/12/19 00:48:49;;;;;;;26.90;11.93;;;;;;;1.74;42.06;102188.00;7396442;19;20006;-57
2022/12/19 00:51:20;;;;;;;26.85;11.80;;;;;;;1.67;42.50;102184.69;7395789;19;20471;-57
2022/12/19 00:53:47;;;;;;;25.05;11.80;;;;;;;1.66;42.73;102185.75;7395820;19;20002;-57
2022/12/19 00:56:15;;;;;;;24.00;11.25;;;;;;;1.75;42.87;102170.81;7394671;19;19999;-57
2022/12/19 00:58:41;;;;;;;25.17;11.75;;;;;;;1.76;43.28;102161.66;7396625;19;20509;-57
2022/12/19 01:01:12;;;;;;;25.77;12.63;;;;;;;1.75;43.45;102165.44;7396654;19;20074;-57
2022/12/19 01:03:38;;;;;;;26.45;13.00;;;;;;;1.91;43.34;102162.94;7393459;19;20005;-57
2022/12/19 01:06:05;;;;;;;25.27;13.65;;;;;;;1.93;43.68;102160.81;7393807;19;20066;-57
2022/12/19 01:08:31;;;;;;;27.00;12.82;;;;;;;1.82;44.05;102155.28;7395652;19;20488;-56
2022/12/19 01:10:57;;;;;;;27.05;12.57;;;;;;;1.80;44.26;102140.44;7395505;19;20044;-57
2022/12/19 01:13:24;;;;;;;29.08;12.80;;;;;;;1.82;44.30;102141.81;7394792;19;20491;-56
2022/12/19 01:15:50;;;;;;;27.02;13.02;;;;;;;1.74;44.85;102149.53;7396134;19;20486;-56
2022/12/19 01:18:15;;;;;;;29.35;13.13;;;;;;;1.83;44.59;102134.56;7396607;19;20002;-56
2022/12/19 01:20:46;;;;;;;29.48;13.65;;;;;;;1.63;45.16;102141.31;7396358;19;20003;-56
2022/12/19 01:23:12;;;;;;;27.80;13.50;;;;;;;1.60;45.70;102120.25;7393054;19;20002;-57
2022/12/19 01:25:38;;;;;;;29.60;14.05;;;;;;;1.65;45.42;102122.22;7393066;19;20058;-56
2022/12/19 01:28:06;;;;;;;27.65;13.30;;;;;;;1.71;45.91;102115.00;7393195;19;20036;-56
2022/12/19 01:30:32;;;;;;;27.70;13.93;;;;;;;1.65;46.16;102109.56;7393571;19;20062;-57
2022/12/19 01:32:59;;;;;;;26.85;13.00;;;;;;;1.86;45.80;102110.63;7395401;19;20018;-57
2022/12/19 01:35:26;;;;;;;30.20;13.73;;;;;;;1.86;45.70;102128.66;7392563;19;20046;-57
2022/12/19 01:37:52;;;;;;;30.35;14.32;;;;;;;1.92;45.76;102132.25;7394405;19;20471;-57
2022/12/19 01:40:19;;;;;;;29.92;14.70;;;;;;;1.92;46.00;102124.19;7394744;19;20379;-57
2022/12/19 01:42:46;;;;;;;30.83;13.98;;;;;;;1.95;45.87;102115.59;7393425;19;20006;-56
2022/12/19 01:45:26;;;;;;;29.33;14.70;;;;;;;1.79;46.91;102106.50;7391462;19;20066;-56
2022/12/19 01:47:59;;;;;;;27.30;13.98;;;;;;;1.91;46.01;102098.31;7395016;19;20018;-57
2022/12/19 01:50:27;;;;;;;28.95;14.32;;;;;;;1.68;47.09;102089.41;7393087;19;20003;-56
2022/12/19 01:52:54;;;;;;;31.58;14.65;;;;;;;1.81;46.80;102088.22;7394493;19;19995;-56
2022/12/19 01:55:20;;;;;;;31.50;14.60;;;;;;;1.93;46.73;102071.94;7392821;19;20002;-56
2022/12/19 01:57:46;;;;;;;30.58;14.85;;;;;;;1.94;46.88;102068.19;7394776;19;20328;-56
2022/12/19 02:00:13;;;;;;;32.28;15.23;;;;;;;1.89;47.38;102070.81;7395331;19;19995;-56
2022/12/19 02:03:02;;;;;;;33.42;15.07;;;;;;;1.99;47.02;102070.94;7389183;19;20441;-56
2022/12/19 02:05:28;;;;;;;30.63;15.35;;;;;;;1.97;47.32;102065.00;7389531;19;20002;-57
2022/12/19 02:07:54;;;;;;;28.23;14.27;;;;;;;1.80;47.64;102076.66;7394468;19;20010;-57
2022/12/19 02:10:20;;;;;;;32.08;14.98;;;;;;;1.93;47.22;102082.72;7393917;19;20002;-56
2022/12/19 02:12:46;;;;;;;29.95;14.65;;;;;;;1.56;48.67;102070.66;7391859;19;20387;-57
2022/12/19 02:15:14;;;;;;;31.15;15.25;;;;;;;1.79;48.02;102066.94;7393282;19;19999;-56
2022/12/19 02:18:00;;;;;;;32.10;15.20;;;;;;;1.66;48.89;102051.16;7394388;19;20002;-56
2022/12/19 02:21:04;;;;;;;32.00;14.95;;;;;;;1.65;48.84;102052.25;7393970;19;20017;-56
2022/12/19 02:24:04;;;;;;;30.17;15.23;;;;;;;2.03;47.73;102048.66;7392267;19;20109;-56
2022/12/19 02:26:52;;;;;;;29.83;14.38;;;;;;;2.07;47.58;102046.25;7391794;19;20022;-56
2022/12/19 02:29:40;;;;;;;30.83;14.45;;;;;;;2.00;47.64;102049.16;7391731;19;20006;-56
2022/12/19 02:32:09;;;;;;;29.00;13.82;;;;;;;1.92;48.01;102046.91;7392658;19;20443;-56
2022/12/19 02:35:10;;;;;;;31.08;14.65;;;;;;;1.91;48.99;102047.16;7390778;19;20487;-56
2022/12/19 02:37:46;;;;;;;32.85;15.35;;;;;;;1.95;48.10;102029.41;7391713;19;20021;-57
2022/12/19 02:40:29;;;;;;;33.83;15.65;;;;;;;2.12;48.46;102032.03;7391225;19;19998;-57
2022/12/19 02:43:00;;;;;;;32.50;15.27;;;;;;;1.96;48.44;102026.47;7392375;19;20514;-57
2022/12/19 02:45:32;;;;;;;31.73;15.43;;;;;;;2.02;48.57;102024.66;7390912;19;19998;-57
2022/12/19 02:48:00;;;;;;;35.20;16.02;;;;;;;1.94;48.51;102014.34;7392654;19;20024;-57
2022/12/19 02:50:34;;;;;;;32.38;15.25;;;;;;;2.13;48.36;102017.47;7393387;19;20462;-57
2022/12/19 02:53:00;;;;;;;33.30;15.20;;;;;;;2.05;49.04;102019.56;7392284;19;20010;-57
2022/12/19 02:55:27;;;;;;;32.03;15.20;;;;;;;2.00;49.21;102021.38;7390998;19;20006;-57
2022/12/19 02:58:25;;;;;;;32.03;15.02;;;;;;;2.05;49.37;102024.16;7391938;19;20498;-57
2022/12/19 03:01:20;;;;;;;30.35;14.82;;;;;;;1.83;49.67;102033.06;7392615;19;20082;-56
2022/12/19 03:04:05;;;;;;;32.88;16.05;;;;;;;2.07;49.10;102031.97;7391870;19;20116;-56
2022/12/19 03:06:41;;;;;;;32.88;15.18;;;;;;;2.12;49.39;102024.75;7390515;19;20030;-58
2022/12/19 03:09:18;;;;;;;31.73;14.95;;;;;;;2.08;49.49;102018.25;7389792;19;20485;-57
2022/12/19 03:11:48;;;;;;;32.28;14.43;;;;;;;2.14;49.12;102014.53;7392454;19;20501;-57
2022/12/19 03:14:18;;;;;;;32.72;14.77;;;;;;;2.20;49.33;102005.44;7389767;19;20010;-57
2022/12/19 03:16:44;;;;;;;32.88;15.30;;;;;;;2.17;49.21;102003.25;7391970;19;20017;-57
2022/12/19 03:19:12;;;;;;;28.52;14.27;;;;;;;2.22;49.07;102006.00;7392989;19;20002;-57
2022/12/19 03:21:44;;;;;;;33.75;14.88;;;;;;;2.26;48.86;102009.00;7392278;19;20006;-57
2022/12/19 03:24:11;;;;;;;30.80;15.32;;;;;;;2.26;49.45;102008.19;7390021;19;20221;-57
2022/12/19 03:27:04;;;;;;;31.38;15.68;;;;;;;2.36;48.89;101994.81;7388417;19;20015;-58
2022/12/19 03:29:46;;;;;;;34.47;14.52;;;;;;;2.41;48.93;101994.84;7389189;19;20007;-58
2022/12/19 03:32:14;;;;;;;30.90;15.00;;;;;;;2.40;49.12;101983.28;7389673;19;20006;-58
2022/12/19 03:34:52;;;;;;;36.25;16.63;;;;;;;2.40;49.56;101977.88;7387288;19;20015;-58
2022/12/19 03:37:22;;;;;;;32.35;15.95;;;;;;;2.36;49.18;101976.75;7389887;19;20010;-58
2022/12/19 03:39:53;;;;;;;29.80;14.57;;;;;;;2.57;48.79;101977.75;7391015;19;20007;-58
2022/12/19 03:45:08;;;;;;;29.55;14.73;;;;;;;2.49;49.46;101970.13;7390254;19;20005;-58
2022/12/19 03:47:38;;;;;;;29.45;14.02;;;;;;;2.56;49.20;101959.13;7391021;19;19999;-58
2022/12/19 03:50:05;;;;;;;33.78;14.95;;;;;;;2.56;49.31;101959.94;7390650;19;20002;-58
2022/12/19 03:53:13;;;;;;;30.42;14.73;;;;;;;2.45;49.77;101947.47;7388994;19;20469;-58
2022/12/19 03:56:02;;;;;;;32.75;15.25;;;;;;;2.58;49.61;101944.34;7391090;19;20087;-58
2022/12/19 03:58:34;;;;;;;31.15;14.13;;;;;;;2.61;49.41;101945.69;7388238;19;20006;-58
2022/12/19 04:01:02;;;;;;;29.83;13.68;;;;;;;2.59;49.58;101948.63;7391158;19;19999;-58
2022/12/19 04:03:29;;;;;;;30.48;14.63;;;;;;;2.62;49.76;101947.31;7390000;19;20073;-58
2022/12/19 04:05:58;;;;;;;32.30;14.88;;;;;;;2.52;49.75;101937.28;7387505;19;19999;-57
2022/12/19 04:08:25;;;;;;;32.20;15.25;;;;;;;2.40;50.22;101939.31;7388272;19;20058;-58
2022/12/19 04:11:00;;;;;;;31.45;14.70;;;;;;;2.29;50.96;101935.75;7391086;19;20010;-57
2022/12/19 04:13:48;;;;;;;34.75;15.77;;;;;;;2.73;49.51;101932.00;7387200;19;20003;-57
2022/12/19 04:16:28;;;;;;;31.77;14.70;;;;;;;2.75;50.05;101928.00;7390267;19;20096;-57
2022/12/19 04:19:05;;;;;;;31.80;15.07;;;;;;;2.75;50.19;101924.47;7390674;19;19999;-57
2022/12/19 04:21:41;;;;;;;32.45;15.10;;;;;;;2.43;50.70;101917.25;7389843;19;20471;-58
2022/12/19 04:24:13;;;;;;;29.95;14.63;;;;;;;2.71;50.28;101920.69;7389235;19;20106;-58
2022/12/19 04:26:45;;;;;;;32.78;16.10;;;;;;;2.78;50.26;101910.47;7395708;19;20088;-57
2022/12/19 04:29:13;;;;;;;33.65;16.02;;;;;;;2.68;50.43;101905.81;7395750;19;20019;-57
2022/12/19 04:31:39;;;;;;;33.90;15.52;;;;;;;2.64;50.81;101909.31;7397461;19;20010;-58
2022/12/19 04:34:05;;;;;;;33.92;15.52;;;;;;;2.70;50.78;101905.56;7388840;19;20072;-56
2022/12/19 04:36:30;;;;;;;32.70;15.77;;;;;;;2.82;50.82;101897.28;7396665;19;20305;-57
2022/12/19 04:38:56;;;;;;;33.42;15.45;;;;;;;2.72;51.03;101884.56;7396865;19;19995;-58
2022/12/19 04:41:22;;;;;;;32.00;15.38;;;;;;;2.73;51.16;101878.09;7397702;19;20018;-57
2022/12/19 04:43:48;;;;;;;32.80;16.08;;;;;;;2.72;51.28;101887.28;7395447;19;20016;-57
2022/12/19 04:46:14;;;;;;;31.58;14.68;;;;;;;2.77;51.01;101871.13;7395060;19;20032;-57
2022/12/19 04:48:39;;;;;;;34.25;15.68;;;;;;;2.86;50.95;101855.25;7396913;19;20007;-57
2022/12/19 04:51:05;;;;;;;32.67;16.08;;;;;;;2.78;51.28;101853.84;7395028;19;20003;-57
2022/12/19 04:53:31;;;;;;;37.28;16.58;;;;;;;2.88;51.33;101863.88;7396635;19;19998;-57
2022/12/19 04:56:02;;;;;;;33.30;16.02;;;;;;;2.94;51.22;101874.41;7393939;19;20470;-57
2022/12/19 04:58:28;;;;;;;32.42;16.15;;;;;;;2.96;51.13;101872.25;7395064;19;20003;-57
2022/12/19 05:00:54;;;;;;;30.83;15.43;;;;;;;2.67;52.05;101857.56;7394492;19;20348;-57
2022/12/19 05:03:20;;;;;;;34.67;16.75;;;;;;;2.95;51.52;101853.66;7395488;19;19994;-57
2022/12/19 05:05:45;;;;;;;34.70;16.55;;;;;;;2.88;51.40;101851.19;7393277;19;20018;-56
2022/12/19 05:08:11;;;;;;;33.45;15.63;;;;;;;2.88;51.59;101842.28;7396284;19;20446;-56
2022/12/19 05:10:37;;;;;;;37.50;16.80;;;;;;;2.83;51.85;101848.47;7396176;19;20012;-56
2022/12/19 05:13:02;;;;;;;32.30;16.40;;;;;;;2.90;51.92;101838.28;7395759;19;20002;-56
2022/12/19 05:15:28;;;;;;;35.40;15.90;;;;;;;2.91;51.63;101841.78;7393820;19;20002;-57
2022/12/19 05:17:54;;;;;;;31.50;16.02;;;;;;;2.74;52.11;101837.38;7396302;19;19994;-58
2022/12/19 05:20:19;;;;;;;30.67;15.90;;;;;;;2.87;52.00;101829.88;7395513;19;19999;-58
2022/12/19 05:22:45;;;;;;;32.47;16.02;;;;;;;2.95;51.56;101816.72;7395040;19;19999;-58
2022/12/19 05:25:11;;;;;;;33.00;16.35;;;;;;;3.01;51.27;101811.34;7393106;19;20003;-57
2022/12/19 05:27:36;;;;;;;35.35;16.15;;;;;;;3.02;51.55;101815.63;7394365;19;20010;-56
2022/12/19 05:30:09;;;;;;;36.17;17.20;;;;;;;2.88;52.22;101818.81;7395416;19;20462;-57
2022/12/19 05:32:35;;;;;;;31.88;15.02;;;;;;;2.90;51.95;101810.47;7394405;19;20422;-56
2022/12/19 05:35:01;;;;;;;33.38;16.17;;;;;;;3.06;51.43;101816.75;7393255;19;20019;-56
2022/12/19 05:37:26;;;;;;;33.97;16.90;;;;;;;3.08;51.59;101819.97;7394624;19;20003;-56
2022/12/19 05:39:52;;;;;;;37.75;16.75;;;;;;;2.88;52.01;101816.13;7395352;19;20062;-57
2022/12/19 05:42:18;;;;;;;31.42;15.98;;;;;;;2.95;51.95;101816.72;7394590;19;20450;-56
2022/12/19 05:44:43;;;;;;;35.13;15.68;;;;;;;2.93;52.09;101810.75;7393395;19;20002;-57
2022/12/19 05:47:09;;;;;;;35.85;15.75;;;;;;;3.12;51.58;101794.91;7393139;19;20003;-57
2022/12/19 05:49:35;;;;;;;38.60;17.70;;;;;;;2.91;52.11;101806.72;7393145;19;19999;-57
2022/12/19 05:52:00;;;;;;;34.40;16.08;;;;;;;2.95;52.26;101799.69;7394481;19;20022;-57
2022/12/19 05:54:27;;;;;;;34.85;15.85;;;;;;;2.97;51.96;101809.16;7393391;19;19999;-57
2022/12/19 05:56:52;;;;;;;36.72;17.00;;;;;;;3.07;51.88;101802.16;7394877;19;20007;-57
2022/12/19 05:59:18;;;;;;;34.63;15.95;;;;;;;3.06;52.02;101797.88;7392487;19;20098;-57
2022/12/19 06:01:44;;;;;;;33.05;16.45;;;;;;;3.04;52.00;101791.94;7394327;19;20007;-57
2022/12/19 06:04:09;;;;;;;32.47;16.55;;;;;;;2.92;52.47;101782.19;7391026;19;20002;-57
2022/12/19 06:06:36;;;;;;;35.38;17.05;;;;;;;2.91;52.61;101785.94;7391993;19;19999;-57
2022/12/19 06:09:02;;;;;;;34.00;16.45;;;;;;;3.03;52.04;101780.31;7394394;19;20091;-57
2022/12/19 06:11:28;;;;;;;34.83;16.75;;;;;;;3.23;51.87;101774.16;7393763;19;19998;-57
2022/12/19 06:13:53;;;;;;;36.50;16.33;;;;;;;3.18;51.95;101765.25;7392526;19;20013;-58
2022/12/19 06:16:21;;;;;;;34.05;16.15;;;;;;;2.93;52.53;101775.69;7393515;19;19995;-57
2022/12/19 06:18:46;;;;;;;33.55;16.20;;;;;;;3.07;52.33;101769.78;7392296;19;20012;-58
2022/12/19 06:21:23;;;;;;;35.28;16.35;;;;;;;3.26;51.82;101768.22;7394561;19;20371;-57
2022/12/19 06:23:50;;;;;;;35.17;16.05;;;;;;;3.20;52.13;101763.88;7392350;19;20049;-57
2022/12/19 06:26:17;;;;;;;34.90;16.73;;;;;;;3.28;52.11;101766.06;7390897;19;20478;-57
2022/12/19 06:28:43;;;;;;;33.92;16.50;;;;;;;3.31;51.97;101760.13;7391688;19;19990;-58
2022/12/19 06:31:10;;;;;;;34.33;15.98;;;;;;;3.26;52.32;101765.53;7393366;19;20007;-58
2022/12/19 06:33:36;;;;;;;36.25;17.30;;;;;;;3.37;52.13;101757.44;7391722;19;20507;-58
2022/12/19 06:36:09;;;;;;;34.75;16.27;;;;;;;3.08;53.43;101756.03;7389519;19;20002;-58
2022/12/19 06:38:35;;;;;;;31.50;15.88;;;;;;;3.24;52.97;101751.50;7392618;19;20006;-58
2022/12/19 06:43:47;;;;;;;34.38;16.33;;;;;;;3.40;52.60;101746.91;7392607;19;19995;-59
2022/12/19 06:46:13;;;;;;;34.17;16.27;;;;;;;3.39;52.69;101739.09;7391913;19;20018;-58
2022/12/19 06:48:39;;;;;;;36.08;17.17;;;;;;;3.19;53.34;101739.91;7390741;19;19991;-58
2022/12/19 06:51:05;;;;;;;34.45;17.85;;;;;;;3.29;53.18;101734.50;7389703;19;20478;-60
2022/12/19 06:53:30;;;;;;;34.58;16.17;;;;;;;3.13;53.62;101731.78;7391961;19;20005;-59
2022/12/19 06:55:57;;;;;;;38.78;17.30;;;;;;;3.07;54.09;101735.56;7390449;19;19995;-58
2022/12/19 06:58:24;;;;;;;37.08;17.95;;;;;;;3.34;53.59;101727.22;7393132;19;20001;-59
2022/12/19 07:00:50;;;;;;;36.00;16.65;;;;;;;3.42;53.39;101735.84;7392530;19;20474;-59
2022/12/19 07:03:20;;;;;;;37.78;17.35;;;;;;;3.41;53.15;101734.25;7391877;19;20010;-59
2022/12/19 07:05:47;;;;;;;39.05;17.58;;;;;;;3.14;54.38;101736.09;7390360;19;20058;-59
2022/12/19 07:08:13;;;;;;;33.78;17.60;;;;;;;3.31;53.84;101727.75;7392300;19;20010;-58
2022/12/19 07:10:38;;;;;;;33.33;16.63;;;;;;;3.43;53.38;101740.22;7389686;19;20016;-58
2022/12/19 07:13:04;;;;;;;36.63;17.35;;;;;;;3.43;53.82;101732.09;7391820;19;20277;-58
2022/12/19 07:15:32;;;;;;;37.80;18.02;;;;;;;3.48;53.40;101740.19;7390362;19;20502;-60
2022/12/19 07:18:01;;;;;;;34.83;16.92;;;;;;;3.49;53.64;101739.13;7390790;19;19999;-58
2022/12/19 07:20:27;;;;;;;33.90;16.33;;;;;;;3.53;53.35;101738.31;7391631;19;19995;-58
2022/12/19 07:22:53;;;;;;;36.58;17.42;;;;;;;3.51;53.54;101736.97;7390349;19;20006;-59
2022/12/19 07:25:19;;;;;;;35.75;17.20;;;;;;;3.13;54.82;101744.47;7390012;19;20021;-59
2022/12/19 07:27:46;;;;;;;34.03;16.60;;;;;;;3.38;54.30;101745.56;7391811;19;19991;-58
2022/12/19 07:30:12;;;;;;;39.20;18.15;;;;;;;3.31;54.65;101749.34;7391993;19;20006;-59
2022/12/19 07:32:38;;;;;;;39.72;17.70;;;;;;;3.30;54.61;101747.72;7388616;19;20006;-58
2022/12/19 07:35:07;;;;;;;38.72;18.48;;;;;;;3.45;53.96;101743.44;7389264;19;20490;-59
2022/12/19 07:37:33;;;;;;;37.58;17.95;;;;;;;3.21;55.02;101743.94;7391228;19;20007;-58
2022/12/19 07:39:59;;;;;;;37.15;17.50;;;;;;;3.48;54.35;101746.41;7391438;19;20026;-58
2022/12/19 07:42:24;;;;;;;35.83;17.33;;;;;;;3.53;54.17;101740.19;7390939;19;20013;-60
2022/12/19 07:44:50;;;;;;;40.03;18.27;;;;;;;3.28;55.06;101743.66;7389663;19;20364;-59
2022/12/19 07:47:16;;;;;;;37.72;17.67;;;;;;;3.32;55.09;101734.78;7391241;19;20003;-58
2022/12/19 07:49:42;;;;;;;38.30;18.45;;;;;;;3.26;55.08;101735.03;7390174;19;20030;-59
2022/12/19 07:52:08;;;;;;;36.58;17.45;;;;;;;3.40;54.93;101729.91;7391477;19;19999;-59
2022/12/19 07:54:34;;;;;;;40.42;18.83;;;;;;;3.05;55.81;101720.69;7388726;19;19999;-59
2022/12/19 07:57:00;;;;;;;36.80;18.13;;;;;;;3.31;55.52;101724.25;7390766;19;20015;-59
2022/12/19 07:59:26;;;;;;;39.33;18.30;;;;;;;3.19;55.95;101735.31;7390862;19;20001;-58
2022/12/19 08:01:52;;;;;;;40.15;18.40;;;;;;;3.41;55.01;101726.16;7399409;19;20054;-59
2022/12/19 08:04:17;;;;;;;37.92;18.52;;;;;;;3.57;54.82;101718.88;7395584;19;20023;-58
2022/12/19 08:06:44;;;;;;;40.90;17.73;;;;;;;3.64;54.67;101725.63;7394414;19;20009;-59
2022/12/19 08:09:10;;;;;;;39.72;19.48;;;;;;;3.55;54.98;101721.03;7398183;19;20007;-59
2022/12/19 08:11:36;;;;;;;42.60;18.83;;;;;;;3.51;54.81;101715.38;7397002;19;20017;-58
2022/12/19 08:14:02;;;;;;;37.20;18.55;;;;;;;3.05;56.60;101724.22;7394819;19;20007;-58
2022/12/19 08:16:28;;;;;;;38.88;18.42;;;;;;;3.25;56.12;101718.06;7397375;19;20006;-58
2022/12/19 08:18:54;;;;;;;37.95;17.52;;;;;;;3.67;55.21;101716.16;7396193;19;20006;-58
2022/12/19 08:21:21;;;;;;;35.47;17.95;;;;;;;3.47;55.61;101714.28;7397092;19;20006;-58
2022/12/19 08:23:46;;;;;;;38.55;18.85;;;;;;;3.68;55.18;101709.69;7396313;19;20099;-58
2022/12/19 08:26:14;;;;;;;41.42;18.83;;;;;;;3.66;55.01;101718.06;7394946;19;20525;-58
2022/12/19 08:28:41;;;;;;;36.13;17.85;;;;;;;3.71;55.00;101715.34;7397256;19;20007;-58
2022/12/19 08:31:13;;;;;;;37.67;19.35;;;;;;;3.56;55.65;101719.97;7396599;19;20010;-58
2022/12/19 08:33:39;;;;;;;38.15;18.77;;;;;;;3.43;56.34;101724.00;7396730;19;20031;-58
2022/12/19 08:36:08;;;;;;;41.72;19.63;;;;;;;3.33;56.27;101720.19;7394564;19;20471;-58
2022/12/19 08:38:35;;;;;;;39.72;18.98;;;;;;;3.71;55.45;101712.66;7396629;19;20007;-58
2022/12/19 08:41:00;;;;;;;40.63;19.08;;;;;;;3.46;56.12;101720.78;7397292;19;20002;-59
2022/12/19 08:43:27;;;;;;;41.95;19.20;;;;;;;3.49;56.19;101717.53;7395883;19;20002;-58
2022/12/19 08:45:53;;;;;;;39.03;19.02;;;;;;;3.50;56.68;101709.19;7392979;19;20041;-58
2022/12/19 08:48:19;;;;;;;41.75;20.50;;;;;;;3.51;56.42;101709.97;7396457;19;20005;-58
2022/12/19 08:50:52;;;;;;;44.72;20.10;;;;;;;3.45;57.01;101711.88;7396969;19;19999;-58
2022/12/19 08:53:19;;;;;;;41.08;20.05;;;;;;;3.37;57.09;101698.91;7393824;19;20054;-58
2022/12/19 08:55:45;;;;;;;41.42;19.83;;;;;;;3.41;56.97;101705.34;7395526;19;20007;-57
2022/12/19 08:58:12;;;;;;;42.33;19.92;;;;;;;3.70;56.24;101708.34;7395705;19;20076;-59
2022/12/19 09:00:37;;;;;;;45.08;19.58;;;;;;;3.86;55.76;101697.50;7396118;19;20095;-59
2022/12/19 09:03:04;;;;;;;38.78;19.50;;;;;;;3.49;56.80;101701.34;7395319;19;20423;-59
2022/12/19 09:05:29;;;;;;;41.10;19.60;;;;;;;3.57;57.33;101698.09;7394042;19;20438;-58
2022/12/19 09:07:55;;;;;;;40.53;19.88;;;;;;;3.55;57.16;101696.75;7395691;19;20005;-58
2022/12/19 09:10:21;;;;;;;39.00;18.35;;;;;;;3.51;57.33;101697.28;7394912;19;20335;-58
2022/12/19 09:12:46;;;;;;;41.15;20.23;;;;;;;3.70;56.99;101699.41;7395038;19;20006;-58
2022/12/19 09:15:12;;;;;;;39.45;18.38;;;;;;;4.03;56.19;101705.31;7393734;19;20007;-59
2022/12/19 09:17:38;;;;;;;39.55;20.13;;;;;;;4.07;55.65;101701.78;7396007;19;20005;-58
2022/12/19 09:20:14;;;;;;;38.92;19.33;;;;;;;4.01;56.08;101708.28;7392555;19;20031;-59
2022/12/19 09:22:40;;;;;;;44.13;19.90;;;;;;;3.97;56.32;101707.22;7395514;19;19999;-58
2022/12/19 09:25:06;;;;;;;39.03;18.52;;;;;;;3.99;56.08;101705.03;7393181;19;20002;-58
2022/12/19 09:27:32;;;;;;;39.83;19.02;;;;;;;3.87;56.77;101696.41;7394860;19;20007;-58
2022/12/19 09:29:57;;;;;;;39.80;20.25;;;;;;;4.15;55.91;101697.69;7394820;19;20455;-58
2022/12/19 09:32:23;;;;;;;36.10;18.52;;;;;;;3.95;56.43;101693.16;7394803;19;20086;-57
2022/12/19 09:35:02;;;;;;;39.75;18.90;;;;;;;4.06;56.57;101691.25;7393361;19;20007;-58
2022/12/19 09:37:28;;;;;;;40.45;19.08;;;;;;;4.23;55.88;101693.63;7393202;19;20014;-59
2022/12/19 09:39:54;;;;;;;36.60;19.08;;;;;;;4.09;56.30;101683.41;7395012;19;20070;-58
2022/12/19 09:42:45;;;;;;;38.13;18.95;;;;;;;4.12;56.46;101690.16;7393879;19;19998;-57
2022/12/19 09:45:29;;;;;;;37.55;18.75;;;;;;;4.07;57.05;101680.16;7390856;19;20006;-58
2022/12/19 09:47:57;;;;;;;37.05;19.27;;;;;;;4.08;56.55;101687.16;7393384;19;20002;-57
2022/12/19 09:50:55;;;;;;;39.92;19.38;;;;;;;4.25;56.64;101681.47;7394476;19;20025;-59
2022/12/19 09:53:28;;;;;;;35.20;19.05;;;;;;;4.28;56.29;101669.28;7391959;19;19995;-58
2022/12/19 09:55:57;;;;;;;39.33;19.52;;;;;;;4.09;57.17;101663.69;7392166;19;20003;-60
2022/12/19 09:58:29;;;;;;;36.38;18.75;;;;;;;4.12;57.19;101667.72;7394552;19;20022;-57
2022/12/19 10:00:57;;;;;;;36.17;18.30;;;;;;;4.31;56.53;101666.03;7393421;19;20013;-59
2022/12/19 10:03:30;;;;;;;37.75;18.80;;;;;;;4.18;56.82;101672.81;7393815;19;20012;-58
2022/12/19 10:06:11;;;;;;;37.40;18.02;;;;;;;4.23;57.08;101680.09;7388015;19;20322;-58
2022/12/19 10:08:39;;;;;;;38.53;18.55;;;;;;;4.24;57.11;101673.63;7393202;19;20002;-58
2022/12/19 10:11:13;;;;;;;34.70;18.45;;;;;;;4.28;57.08;101670.06;7391782;19;20467;-58
2022/12/19 10:13:55;;;;;;;35.35;18.20;;;;;;;4.22;57.44;101670.38;7391211;19;20459;-58
2022/12/19 10:16:35;;;;;;;34.83;17.75;;;;;;;4.34;57.33;101673.56;7391582;19;20518;-59
2022/12/19 10:19:30;;;;;;;35.25;18.00;;;;;;;4.35;57.40;101677.09;7393921;19;20010;-58
2022/12/19 10:22:00;;;;;;;35.72;16.98;;;;;;;4.26;57.96;101660.63;7391832;19;20336;-59
2022/12/19 10:24:41;;;;;;;32.58;17.55;;;;;;;4.37;57.43;101662.22;7392027;19;20010;-59
2022/12/19 10:27:26;;;;;;;33.85;17.10;;;;;;;4.43;58.16;101671.09;7391286;19;20021;-59
2022/12/19 10:30:16;;;;;;;33.95;16.75;;;;;;;4.32;58.93;101653.31;7393941;19;20107;-58
2022/12/19 10:33:06;;;;;;;32.15;16.85;;;;;;;4.42;58.38;101659.47;7392201;19;20085;-59
2022/12/19 10:35:35;;;;;;;31.20;16.17;;;;;;;4.46;57.78;101665.13;7386179;19;20018;-57
2022/12/19 10:38:32;;;;;;;32.38;16.52;;;;;;;4.50;58.65;101655.38;7389335;19;20476;-57
2022/12/19 10:41:21;;;;;;;33.72;17.75;;;;;;;4.59;58.05;101663.72;7390609;19;20002;-57
2022/12/19 10:44:06;;;;;;;30.88;15.82;;;;;;;4.57;57.88;101658.59;7392722;19;20002;-57
2022/12/19 10:46:37;;;;;;;30.17;15.98;;;;;;;4.67;57.76;101660.41;7391257;19;19995;-57
2022/12/19 10:49:24;;;;;;;28.02;15.93;;;;;;;4.66;58.21;101650.69;7391961;19;20014;-57
2022/12/19 10:52:04;;;;;;;28.40;15.13;;;;;;;4.80;57.54;101651.66;7392487;19;20038;-57
2022/12/19 10:54:36;;;;;;;28.85;15.02;;;;;;;4.86;57.07;101644.34;7391318;19;20006;-57
2022/12/19 10:57:20;;;;;;;25.85;15.70;;;;;;;4.87;57.48;101656.75;7393185;19;20482;-57
2022/12/19 11:00:13;;;;;;;26.40;15.35;;;;;;;4.93;57.31;101652.94;7392394;19;20427;-57
2022/12/19 11:02:41;;;;;;;28.58;16.08;;;;;;;4.89;57.64;101657.31;7390709;19;20507;-56
2022/12/19 11:05:22;;;;;;;29.67;15.13;;;;;;;4.93;57.76;101657.56;7390930;19;20002;-57
2022/12/19 11:08:06;;;;;;;28.23;15.00;;;;;;;4.98;57.83;101641.28;7392589;19;19995;-56
2022/12/19 11:10:36;;;;;;;26.90;14.73;;;;;;;4.90;58.19;101644.59;7392068;19;20075;-57
2022/12/19 11:13:25;;;;;;;28.30;14.98;;;;;;;4.99;57.82;101646.41;7389352;19;20006;-56
2022/12/19 11:15:53;;;;;;;25.77;14.10;;;;;;;5.01;58.10;101646.13;7390434;19;20340;-57
2022/12/19 11:18:20;;;;;;;26.08;14.00;;;;;;;5.10;57.75;101647.13;7392193;19;20006;-58
2022/12/19 11:21:02;;;;;;;28.48;14.27;;;;;;;5.07;58.33;101641.47;7391043;19;20475;-57
2022/12/19 11:23:30;;;;;;;28.90;15.18;;;;;;;4.97;58.70;101639.66;7389643;19;20005;-57
2022/12/19 11:26:02;;;;;;;26.98;14.32;;;;;;;5.04;58.32;101632.03;7389041;19;20440;-57
2022/12/19 11:28:38;;;;;;;26.35;15.15;;;;;;;5.10;58.29;101636.28;7391989;19;19998;-58
2022/12/19 11:31:03;;;;;;;26.58;15.43;;;;;;;5.14;58.45;101628.41;7390867;19;20002;-57
2022/12/19 11:33:30;;;;;;;25.38;13.93;;;;;;;5.22;58.49;101621.59;7390178;19;19994;-57
2022/12/19 11:35:58;;;;;;;24.77;14.90;;;;;;;5.23;58.75;101620.50;7387145;19;20018;-57
2022/12/19 11:38:51;;;;;;;25.35;14.20;;;;;;;5.34;58.70;101622.03;7391710;19;20003;-57